Terminal Aerodrome Forecast
Issued by NWS

Home | Current Version | Previous Version | Text Only | Print | Product List | Glossary On
Versions: 1 2 3 4 5 6 7 8 9 10 11 12 13 14 15 16 17
000
FTUS46 KOTX 210520
TAFSFF
TAF
KSFF 210520Z 2106/2206 14003KT P6SM SCT100 BKN150
     FM211300 VRB02KT P6SM BKN100 OVC150
     FM211700 07003KT P6SM BKN060 OVC100
     FM220000 17006KT P6SM VCSH BKN060 OVC100=

USA.gov is the U.S. government's official web portal to all federal, state and local government web resources and services.